Boston, Massachusetts
Traffic Map
Current Weather Conditions
Boston, Massachusetts
Overcast Light Rain
Overcast
12°
Feels Like: 12°
Wind Chill: 12° Ceiling: 900
Heat Index: 12° Visibility: 7mi
Dew Point: 12° Wind: 7mph
Humidity: 100% Direction: 130° (SE)
Pressure: 29.73in Gusts: 0mph
Raw Report DataKBOS 260154Z 13006KT 7SM -RA FEW003 OVC009 12/12 A2973 RMK AO2 SLP068 P0005 T01170117 $
Traffic Incident Summary
Active as of:
Severity:
Category:
InformationThere was an issue retrieving the traffic information for this location. Please try a different location or try again shortly.
Advertisements